MUC weather

Munich Airport
Munich, Bavaria, Germany

Public forecast

Using degrees Celsius for public forecast. Weather courtesy of forecast.io.

Current aviation weather report (METAR) for Munich Airport

Retrieved 2019/10/13 18:20 UTC (39 minutes ago):

EDDM 131820Z 11003KT 070V130 CAVOK 14/12 Q1017 NOSIG

Aviation forecast (TAF) for Munich Airport

Retrieved 2019/10/13 18:27 UTC (32 minutes ago):

TAF EDDM 131700Z 1318/1424 VRB02KT CAVOK TEMPO 1400/1407 2500 BCFG PROB40 TEMPO 1401/1406 0400 FG BECMG 1409/1411 05005KT BECMG 1415/1417 VRB02KT